22:05
Airports
Links
Donate
Help keep this website running!
PayPal
Bitcoin
METAR
YBRK 182204Z AUTO 10012KT 6000 DZ BKN022 OVC028 23/20 Q1020
Current Weather Conditions at YBRK
MVFR 22:04:00 18-10-17
Automated station, no observer
Altimeter:30.12 hg
Temp:23.0°c 73°f
Dew point:20.0°c 68°f
Wind:12 knots, 13.8 mph, 6 m/s, from 100°
Visibility:3.73 statute miles
2800(OVC) Overcast
2200(BKN) Broken
Past METAR reports
MVFR 21:30:00 18-10-17
Automated station, no observer
Altimeter:30.12 hg
Temp:23.0°c 73°f
Dew point:20.0°c 68°f
Wind:10 knots, 11.5 mph, 5 m/s, from 110°
Visibility:6.21 statute miles
3100(OVC) Overcast
2200(BKN) Broken
YBRK 182130Z AUTO 11010KT 9999 // BKN022 OVC031 23/20 Q1020
MVFR 21:00:00 18-10-17
Automated station, no observer
Altimeter:30.12 hg
Temp:23.0°c 73°f
Dew point:20.0°c 68°f
Wind:12 knots, 13.8 mph, 6 m/s, from 110°
Visibility:6.21 statute miles
2800(OVC) Overcast
2500(BKN) Broken
2000(SCT) Scattered
YBRK 182100Z AUTO 11012KT 9999 // SCT020 BKN025 OVC028 23/20 Q1020
MVFR 20:30:00 18-10-17
Automated station, no observer
Altimeter:30.09 hg
Temp:22.0°c 72°f
Dew point:20.0°c 68°f
Wind:12 knots, 13.8 mph, 6 m/s, from 120°
Visibility:6.21 statute miles
2700(OVC) Overcast
2200(BKN) Broken
1600(SCT) Scattered
YBRK 182030Z AUTO 12012KT 9999 // SCT016 BKN022 OVC027 22/20 Q1019
MVFR 20:05:00 18-10-17
Automated station, no observer
Altimeter:30.09 hg
Temp:22.0°c 72°f
Dew point:20.0°c 68°f
Wind:13 knots, 15 mph, 7 m/s, from 120°
Visibility:6.21 statute miles
2700(OVC) Overcast
2200(BKN) Broken
1400(SCT) Scattered
YBRK 182005Z AUTO 12013KT 9999 // SCT014 BKN022 OVC027 22/20 Q1019
MVFR 20:01:00 18-10-17
Automated station, no observer
Altimeter:30.09 hg
Temp:22.0°c 72°f
Dew point:20.0°c 68°f
Wind:13 knots, 15 mph, 7 m/s, from 120°
Visibility:6.21 statute miles
2700(OVC) Overcast
2000(BKN) Broken
1400(SCT) Scattered
YBRK 182001Z AUTO 12013KT 9999 -SHRA SCT014 BKN020 OVC027 22/20 Q1019
MVFR 20:00:00 18-10-17
Automated station, no observer
Altimeter:30.09 hg
Temp:22.0°c 72°f
Dew point:20.0°c 68°f
Wind:13 knots, 15 mph, 7 m/s, from 120°
Visibility:6.21 statute miles
2500(BKN) Broken
2000(BKN) Broken
1400(SCT) Scattered
YBRK 182000Z AUTO 12013KT 9999 -SHRA SCT014 BKN020 BKN025 22/20 Q1019
TAF
TAF AMD YBRK 182032Z 1820/1918 10010KT 9999 -SHRA SCT015 BKN020 FM190000 10014KT 9999 -SHRA SCT025 BKN045 FM191400 12006KT 9999 -SHRA SCT020 BKN050 INTER 1820/1912 4000 SHRA BKN010
Forecast at YBRK
20:00 18-10-17 to 00:00 19-10-17
-SHRA
Wind:10 Knots from 100°
Visibility:6.21 statute miles
1500SCT Scattered
2000BKN Broken
TEMPO 20:00 18-10-17 to 12:00 19-10-17
SHRA
Visibility:2.49 statute miles
1000BKN Broken
FM 00:00 19-10-17 to 14:00 19-10-17
-SHRA
Wind:14 Knots from 100°
Visibility:6.21 statute miles
2500SCT Scattered
4500BKN Broken
FM 14:00 19-10-17 to 18:00 19-10-17
-SHRA
Wind:6 Knots from 120°
Visibility:6.21 statute miles
2000SCT Scattered
5000BKN Broken